createdAt,value
2023-01-12T00:01:40.150Z,8.40
2023-01-12T00:04:41.950Z,8.40
2023-01-12T00:07:43.640Z,8.40
2023-01-12T00:10:45.646Z,8.40
2023-01-12T00:13:48.082Z,8.40
2023-01-12T00:16:49.776Z,8.40
2023-01-12T00:19:51.427Z,8.50
2023-01-12T00:22:53.134Z,8.50
2023-01-12T00:25:54.866Z,8.50
2023-01-12T00:28:56.543Z,8.50
2023-01-12T00:31:59.404Z,8.50
2023-01-12T00:35:01.391Z,8.50
2023-01-12T00:38:06.254Z,8.60
2023-01-12T00:41:10.341Z,8.50
2023-01-12T00:44:30.583Z,8.50
2023-01-12T00:47:32.419Z,8.50
2023-01-12T00:50:34.233Z,8.60
2023-01-12T00:53:36.143Z,8.60
2023-01-12T00:56:38.760Z,8.50
2023-01-12T00:59:41.006Z,8.40
2023-01-12T01:02:42.789Z,8.40
2023-01-12T01:05:44.509Z,8.40
2023-01-12T01:08:46.194Z,8.40
2023-01-12T01:11:48.000Z,8.40
2023-01-12T01:14:49.765Z,8.40
2023-01-12T01:17:51.423Z,8.50
2023-01-12T01:20:53.336Z,8.50
2023-01-12T01:23:55.061Z,8.60
2023-01-12T01:26:56.729Z,8.50
2023-01-12T01:29:59.430Z,8.60
2023-01-12T01:33:01.111Z,8.60
2023-01-12T01:36:03.056Z,8.60
2023-01-12T01:39:05.287Z,8.60
2023-01-12T01:42:27.622Z,8.60
2023-01-12T01:45:29.298Z,8.60
2023-01-12T01:48:33.762Z,8.60
2023-01-12T01:51:35.847Z,8.60
2023-01-12T01:54:47.545Z,8.70
2023-01-12T01:57:55.829Z,8.70
2023-01-12T02:00:58.388Z,8.60
2023-01-12T02:04:00.820Z,8.60
2023-01-12T02:07:03.075Z,8.60
2023-01-12T02:10:05.244Z,8.60
2023-01-12T02:13:25.538Z,8.60
2023-01-12T02:16:30.237Z,8.60
2023-01-12T02:20:04.023Z,8.70
2023-01-12T02:23:27.658Z,8.70
2023-01-12T02:26:37.113Z,8.70
2023-01-12T02:30:05.573Z,8.80
2023-01-12T02:33:30.031Z,8.50
2023-01-12T02:36:53.556Z,8.80
2023-01-12T02:40:10.401Z,8.80
2023-01-12T02:43:20.224Z,8.70
2023-01-12T02:46:27.804Z,8.70
2023-01-12T02:49:36.169Z,8.60
2023-01-12T02:52:42.435Z,8.60
2023-01-12T02:55:45.773Z,8.60
2023-01-12T02:58:55.364Z,8.60
2023-01-12T03:02:02.682Z,8.60
2023-01-12T03:05:05.989Z,8.60
2023-01-12T03:08:11.948Z,8.50
2023-01-12T03:11:19.157Z,8.50
2023-01-12T03:14:22.322Z,8.50
2023-01-12T03:17:43.162Z,8.50
2023-01-12T03:20:53.195Z,8.50
2023-01-12T03:24:07.722Z,8.50
2023-01-12T03:27:21.820Z,8.40
2023-01-12T03:30:30.311Z,8.50
2023-01-12T03:33:32.083Z,8.40
2023-01-12T03:36:39.901Z,8.50
2023-01-12T03:39:56.807Z,8.50
2023-01-12T03:43:10.518Z,8.50
2023-01-12T03:46:22.823Z,8.50
2023-01-12T03:49:32.115Z,8.50
2023-01-12T03:52:36.263Z,8.50
2023-01-12T03:55:38.439Z,8.50
2023-01-12T03:58:41.250Z,8.50
2023-01-12T04:01:43.359Z,8.50
2023-01-12T04:04:45.336Z,8.50
2023-01-12T04:07:46.997Z,8.50
2023-01-12T04:10:48.732Z,8.60
2023-01-12T04:13:50.620Z,8.50
2023-01-12T04:16:52.604Z,8.50
2023-01-12T04:19:54.290Z,8.60
2023-01-12T04:22:55.943Z,8.50
2023-01-12T04:25:57.608Z,8.60
2023-01-12T04:28:59.429Z,8.50
2023-01-12T04:32:01.225Z,8.50
2023-01-12T04:35:03.156Z,8.50
2023-01-12T04:38:09.057Z,8.50
2023-01-12T04:41:10.776Z,8.50
2023-01-12T04:44:12.542Z,8.50
2023-01-12T04:47:14.211Z,8.50
2023-01-12T04:50:15.937Z,8.50
2023-01-12T04:53:17.774Z,8.50
2023-01-12T04:56:20.258Z,8.40
2023-01-12T04:59:22.115Z,8.50
2023-01-12T05:02:23.879Z,8.50
2023-01-12T05:05:26.604Z,8.50
2023-01-12T05:08:46.983Z,8.50
2023-01-12T05:11:48.641Z,8.50
2023-01-12T05:14:50.829Z,8.50
2023-01-12T05:17:54.265Z,8.40
2023-01-12T05:20:57.058Z,9.10
2023-01-12T05:23:58.774Z,8.30
2023-01-12T05:27:01.222Z,8.30
2023-01-12T05:30:03.420Z,8.30
2023-01-12T05:33:05.155Z,8.20
2023-01-12T05:36:08.999Z,8.20
2023-01-12T05:39:10.673Z,8.20
2023-01-12T05:42:31.269Z,8.20
2023-01-12T05:45:33.872Z,8.20
2023-01-12T05:48:35.530Z,8.20
2023-01-12T05:51:37.198Z,8.20
2023-01-12T05:54:38.842Z,8.20
2023-01-12T05:57:40.509Z,8.20
2023-01-12T06:00:42.238Z,8.20
2023-01-12T06:03:43.903Z,8.20
2023-01-12T06:06:46.405Z,8.20
2023-01-12T06:09:48.047Z,8.20
2023-01-12T06:13:08.880Z,8.20
2023-01-12T06:16:10.591Z,8.20
2023-01-12T06:19:13.174Z,8.20
2023-01-12T06:22:14.965Z,8.20
2023-01-12T06:25:16.669Z,8.20
2023-01-12T06:28:18.336Z,8.20
2023-01-12T06:31:20.135Z,8.30
2023-01-12T06:34:21.874Z,8.30
2023-01-12T06:37:23.599Z,8.30
2023-01-12T06:40:25.285Z,8.30
2023-01-12T06:43:26.942Z,8.30
2023-01-12T06:46:28.850Z,8.30
2023-01-12T06:49:30.584Z,8.30
2023-01-12T06:52:32.294Z,8.30
2023-01-12T06:55:34.051Z,8.30
2023-01-12T06:58:36.632Z,8.30
2023-01-12T07:01:39.354Z,8.40
2023-01-12T07:04:41.829Z,8.40
2023-01-12T07:07:43.660Z,8.40
2023-01-12T07:10:46.450Z,8.40
2023-01-12T07:13:48.174Z,8.40
2023-01-12T07:16:49.966Z,8.50
2023-01-12T07:19:51.669Z,8.50
2023-01-12T07:22:54.954Z,8.50
2023-01-12T07:25:59.787Z,8.50
2023-01-12T07:29:01.473Z,8.40
2023-01-12T07:32:03.272Z,8.40
2023-01-12T07:35:05.368Z,8.50
2023-01-12T07:38:07.258Z,8.50
2023-01-12T07:41:28.913Z,8.60
2023-01-12T07:44:40.348Z,8.60
2023-01-12T07:47:42.091Z,8.60
2023-01-12T07:50:43.830Z,8.60
2023-01-12T07:53:47.858Z,8.60
2023-01-12T07:56:49.625Z,8.60
2023-01-12T07:59:51.264Z,8.70
2023-01-12T08:02:54.887Z,8.70
2023-01-12T08:05:57.797Z,8.70
2023-01-12T08:08:59.480Z,8.80
2023-01-12T08:12:01.160Z,8.80
2023-01-12T08:15:04.388Z,8.80
2023-01-12T08:18:15.273Z,8.80
2023-01-12T08:21:21.206Z,8.80
2023-01-12T08:24:27.485Z,8.90
2023-01-12T08:27:31.827Z,8.90
2023-01-12T08:30:34.061Z,8.90
2023-01-12T08:33:37.431Z,9.00
2023-01-12T08:36:44.063Z,9.00
2023-01-12T08:39:46.653Z,9.00
2023-01-12T08:42:49.898Z,9.00
2023-01-12T08:45:51.525Z,9.00
2023-01-12T08:48:53.863Z,9.00
2023-01-12T08:51:55.689Z,9.10
2023-01-12T08:54:57.520Z,9.10
2023-01-12T08:57:59.185Z,9.20
2023-01-12T09:01:08.692Z,9.20
2023-01-12T09:04:10.856Z,9.20
2023-01-12T09:07:13.104Z,9.20
2023-01-12T09:10:15.252Z,9.10
2023-01-12T09:13:16.929Z,9.20
2023-01-12T09:16:20.040Z,9.20
2023-01-12T09:19:21.806Z,9.30
2023-01-12T09:22:23.928Z,9.20
2023-01-12T09:25:25.800Z,9.30
2023-01-12T09:28:27.475Z,9.30
2023-01-12T09:31:30.954Z,9.30
2023-01-12T09:34:32.767Z,9.40
2023-01-12T09:37:34.463Z,9.50
2023-01-12T09:40:36.205Z,9.40
2023-01-12T09:43:58.110Z,9.50
2023-01-12T09:47:00.362Z,9.50
2023-01-12T09:50:11.466Z,9.50
2023-01-12T09:53:22.422Z,9.50
2023-01-12T09:56:41.749Z,9.50
2023-01-12T09:59:59.230Z,9.50
2023-01-12T10:03:09.507Z,9.50
2023-01-12T10:06:15.731Z,9.50
2023-01-12T10:09:22.579Z,9.40
2023-01-12T10:12:41.945Z,9.50
2023-01-12T10:15:51.853Z,9.50
2023-01-12T10:18:58.936Z,9.50
2023-01-12T10:22:11.648Z,9.60
2023-01-12T10:25:19.459Z,9.60
2023-01-12T10:28:33.252Z,9.60
2023-01-12T10:31:35.024Z,9.60
2023-01-12T10:34:50.731Z,9.70
2023-01-12T10:37:56.575Z,9.70
2023-01-12T10:41:10.214Z,9.70
2023-01-12T10:44:15.871Z,9.70
2023-01-12T10:47:18.453Z,9.70
2023-01-12T10:50:28.646Z,9.70
2023-01-12T10:53:40.599Z,9.70
2023-01-12T10:57:12.733Z,9.70
2023-01-12T11:00:26.612Z,9.70
2023-01-12T11:03:34.498Z,9.70
2023-01-12T11:06:37.020Z,9.70
2023-01-12T11:09:40.328Z,9.70
2023-01-12T11:12:41.997Z,9.80
2023-01-12T11:16:04.233Z,9.80
2023-01-12T11:19:23.393Z,9.80
2023-01-12T11:22:28.435Z,9.80
2023-01-12T11:25:41.553Z,9.80
2023-01-12T11:28:47.062Z,9.90
2023-01-12T11:31:54.720Z,9.80
2023-01-12T11:35:21.508Z,9.90
2023-01-12T11:38:33.769Z,9.90
2023-01-12T11:41:39.147Z,9.90
2023-01-12T11:45:02.645Z,9.90
2023-01-12T11:48:20.472Z,9.90
2023-01-12T11:51:22.181Z,9.90
2023-01-12T11:54:26.698Z,9.90
2023-01-12T11:57:41.756Z,9.90
2023-01-12T12:01:03.205Z,9.90
2023-01-12T12:04:49.853Z,9.90
2023-01-12T12:08:02.310Z,9.90
2023-01-12T12:11:34.476Z,9.90
2023-01-12T12:15:04.040Z,9.90
2023-01-12T12:18:37.879Z,9.90
2023-01-12T12:21:50.721Z,10.00
2023-01-12T12:25:07.566Z,10.00
2023-01-12T12:28:48.139Z,9.90
2023-01-12T12:32:00.368Z,10.00
2023-01-12T12:35:33.830Z,10.00
2023-01-12T12:38:53.813Z,9.90
2023-01-12T12:42:29.182Z,10.00
2023-01-12T12:45:50.640Z,9.90
2023-01-12T12:49:05.558Z,9.90
2023-01-12T12:52:11.978Z,9.90
2023-01-12T12:55:13.928Z,9.90
2023-01-12T12:58:21.639Z,9.90
2023-01-12T13:01:23.398Z,9.90
2023-01-12T13:04:54.808Z,9.90
2023-01-12T13:07:56.504Z,9.90
2023-01-12T13:10:58.849Z,9.90
2023-01-12T13:14:15.403Z,9.90
2023-01-12T13:17:20.142Z,9.90
2023-01-12T13:20:49.748Z,9.90
2023-01-12T13:23:52.118Z,9.90
2023-01-12T13:26:55.532Z,9.90
2023-01-12T13:30:38.505Z,9.90
2023-01-12T13:33:40.274Z,9.90
2023-01-12T13:36:43.301Z,9.90
2023-01-12T13:39:57.968Z,9.90
2023-01-12T13:43:15.192Z,10.00
2023-01-12T13:46:27.206Z,10.00
2023-01-12T13:49:30.659Z,10.00
2023-01-12T13:52:37.065Z,10.00
2023-01-12T13:55:38.877Z,10.10
2023-01-12T13:58:43.477Z,10.10
2023-01-12T14:01:47.426Z,10.10
2023-01-12T14:05:23.221Z,10.10
2023-01-12T14:08:39.646Z,10.10
2023-01-12T14:12:20.130Z,10.10
2023-01-12T14:15:58.683Z,10.10
2023-01-12T14:19:00.524Z,10.10
2023-01-12T14:22:04.453Z,10.10
2023-01-12T14:25:23.265Z,10.10
2023-01-12T14:28:25.452Z,10.10
2023-01-12T14:31:37.080Z,10.10
2023-01-12T14:34:41.540Z,10.00
2023-01-12T14:37:48.974Z,10.10
2023-01-12T14:41:02.346Z,10.00
2023-01-12T14:44:23.736Z,10.10
2023-01-12T14:47:29.718Z,10.00
2023-01-12T14:50:31.466Z,10.00
2023-01-12T14:53:38.085Z,10.00
2023-01-12T14:56:59.635Z,10.00
2023-01-12T15:00:02.863Z,10.00
2023-01-12T15:03:20.230Z,10.00
2023-01-12T15:06:23.041Z,9.90
2023-01-12T15:09:36.912Z,9.90
2023-01-12T15:12:38.950Z,9.90
2023-01-12T15:15:59.218Z,10.00
2023-01-12T15:19:19.687Z,9.90
2023-01-12T15:22:45.208Z,10.00
2023-01-12T15:25:46.924Z,10.00
2023-01-12T15:28:49.482Z,10.00
2023-01-12T15:31:51.308Z,10.00
2023-01-12T15:34:53.542Z,9.90
2023-01-12T15:37:57.071Z,10.00
2023-01-12T15:40:58.764Z,9.90
2023-01-12T15:44:00.444Z,10.00
2023-01-12T15:47:02.738Z,9.90
2023-01-12T15:50:05.523Z,9.90
2023-01-12T15:53:17.902Z,9.90
2023-01-12T15:56:19.540Z,9.90
2023-01-12T15:59:21.221Z,10.00
2023-01-12T16:02:36.469Z,9.90
2023-01-12T16:05:38.301Z,9.90
2023-01-12T16:08:39.951Z,9.90
2023-01-12T16:11:42.295Z,9.90
2023-01-12T16:14:44.841Z,9.90
2023-01-12T16:17:47.486Z,9.90
2023-01-12T16:20:49.133Z,10.00
2023-01-12T16:23:50.987Z,9.90
2023-01-12T16:26:53.311Z,9.90
2023-01-12T16:29:55.255Z,9.90
2023-01-12T16:32:58.630Z,9.90
2023-01-12T16:36:01.873Z,10.00
2023-01-12T16:39:03.651Z,9.90
2023-01-12T16:42:05.405Z,9.90
2023-01-12T16:45:07.427Z,9.90
2023-01-12T16:48:09.102Z,10.00
2023-01-12T16:51:16.292Z,10.00
2023-01-12T16:54:19.283Z,9.90
2023-01-12T16:57:20.982Z,9.90
2023-01-12T17:00:22.904Z,10.00
2023-01-12T17:03:24.921Z,9.90
2023-01-12T17:06:28.566Z,9.90
2023-01-12T17:09:30.425Z,10.00
2023-01-12T17:12:32.219Z,10.00
2023-01-12T17:15:34.816Z,10.00
2023-01-12T17:18:38.404Z,10.00
2023-01-12T17:21:41.580Z,10.00
2023-01-12T17:24:43.286Z,10.00
2023-01-12T17:27:45.209Z,10.00
2023-01-12T17:30:47.706Z,10.00
2023-01-12T17:33:51.716Z,10.00
2023-01-12T17:36:53.387Z,9.90
2023-01-12T17:39:55.059Z,9.90
2023-01-12T17:43:02.803Z,9.90
2023-01-12T17:46:07.446Z,9.80
2023-01-12T17:49:10.342Z,9.80
2023-01-12T17:52:12.054Z,9.90
2023-01-12T17:55:13.722Z,9.90
2023-01-12T17:58:18.324Z,9.90
2023-01-12T18:01:21.418Z,9.90
2023-01-12T18:04:23.379Z,9.80
2023-01-12T18:07:25.064Z,9.90
2023-01-12T18:10:26.747Z,9.90
2023-01-12T18:13:28.700Z,9.90
2023-01-12T18:16:30.401Z,9.90
2023-01-12T18:19:33.261Z,9.90
2023-01-12T18:22:34.938Z,9.90
2023-01-12T18:25:37.013Z,9.90
2023-01-12T18:28:38.815Z,9.90
2023-01-12T18:31:42.435Z,9.90
2023-01-12T18:34:46.783Z,9.90
2023-01-12T18:37:48.592Z,9.90
2023-01-12T18:41:10.204Z,9.90
2023-01-12T18:44:11.918Z,9.90
2023-01-12T18:47:33.162Z,9.30
2023-01-12T18:50:53.480Z,9.90
2023-01-12T18:53:55.211Z,9.90
2023-01-12T18:56:56.875Z,9.90
2023-01-12T19:00:16.974Z,9.90
2023-01-12T19:03:18.657Z,9.90
2023-01-12T19:06:56.963Z,9.80
2023-01-12T19:10:00.221Z,9.80
2023-01-12T19:13:20.630Z,9.90
2023-01-12T19:16:41.011Z,9.90
2023-01-12T19:19:42.703Z,9.90
2023-01-12T19:23:02.973Z,9.90
2023-01-12T19:26:23.382Z,9.90
2023-01-12T19:29:25.063Z,9.90
2023-01-12T19:32:26.809Z,9.90
2023-01-12T19:35:28.512Z,9.90
2023-01-12T19:38:30.169Z,9.90
2023-01-12T19:41:50.702Z,9.90
2023-01-12T19:44:52.360Z,9.90
2023-01-12T19:47:54.048Z,9.90
2023-01-12T19:50:55.747Z,9.90
2023-01-12T19:53:57.500Z,9.90
2023-01-12T19:56:59.183Z,9.80
2023-01-12T20:00:01.062Z,9.90
2023-01-12T20:03:02.901Z,9.90
2023-01-12T20:06:06.825Z,9.90
2023-01-12T20:09:08.511Z,9.80
2023-01-12T20:12:10.184Z,9.80
2023-01-12T20:15:11.956Z,9.80
2023-01-12T20:18:13.788Z,9.80
2023-01-12T20:21:15.534Z,9.80
2023-01-12T20:24:17.213Z,9.80
2023-01-12T20:27:18.918Z,9.80
2023-01-12T20:30:37.055Z,9.80
2023-01-12T20:33:40.421Z,9.80
2023-01-12T20:36:44.634Z,9.80
2023-01-12T20:39:49.620Z,9.70
2023-01-12T20:42:51.306Z,9.80
2023-01-12T20:45:52.958Z,9.80
2023-01-12T20:48:54.692Z,9.80
2023-01-12T20:51:58.846Z,9.80
2023-01-12T20:55:00.706Z,9.80
2023-01-12T20:58:02.383Z,9.80
2023-01-12T21:01:12.266Z,9.90
2023-01-12T21:04:14.053Z,9.80
2023-01-12T21:07:16.559Z,9.90
2023-01-12T21:10:18.334Z,9.90
2023-01-12T21:13:21.175Z,9.80
2023-01-12T21:16:22.886Z,9.80
2023-01-12T21:19:24.742Z,9.80
2023-01-12T21:22:26.509Z,9.90
2023-01-12T21:25:28.997Z,9.90
2023-01-12T21:28:30.841Z,9.90
2023-01-12T21:31:33.015Z,9.90
2023-01-12T21:34:34.684Z,9.80
2023-01-12T21:37:36.330Z,9.80
2023-01-12T21:40:38.013Z,9.90
2023-01-12T21:43:39.665Z,9.90
2023-01-12T21:46:41.355Z,9.90
2023-01-12T21:49:43.019Z,9.90
2023-01-12T21:52:44.923Z,10.00
2023-01-12T21:55:57.993Z,9.90
2023-01-12T21:58:59.671Z,10.00
2023-01-12T22:02:01.735Z,9.90
2023-01-12T22:05:03.888Z,9.90
2023-01-12T22:08:05.534Z,9.90
2023-01-12T22:11:10.056Z,9.90
2023-01-12T22:14:11.735Z,10.00
2023-01-12T22:17:13.404Z,9.90
2023-01-12T22:20:16.484Z,10.00
2023-01-12T22:23:18.161Z,10.00
2023-01-12T22:26:20.026Z,9.90
2023-01-12T22:29:21.790Z,9.90
2023-01-12T22:32:23.476Z,10.00
2023-01-12T22:35:26.115Z,10.00
2023-01-12T22:38:27.783Z,10.00
2023-01-12T22:41:29.444Z,10.10
2023-01-12T22:44:31.116Z,10.00
2023-01-12T22:47:47.291Z,10.00
2023-01-12T22:50:53.202Z,10.00
2023-01-12T22:53:55.824Z,10.00
2023-01-12T22:56:57.571Z,9.90
2023-01-12T22:59:59.278Z,9.90
2023-01-12T23:03:01.924Z,9.90
2023-01-12T23:06:05.981Z,9.90
2023-01-12T23:09:08.015Z,10.00
2023-01-12T23:12:09.862Z,9.80
2023-01-12T23:15:11.829Z,9.90
2023-01-12T23:18:16.609Z,9.90
2023-01-12T23:21:20.368Z,9.90
2023-01-12T23:24:22.266Z,9.90
2023-01-12T23:27:24.114Z,10.00
2023-01-12T23:30:30.838Z,10.00
2023-01-12T23:33:32.984Z,10.00
2023-01-12T23:36:35.999Z,10.00
2023-01-12T23:39:37.850Z,10.00
2023-01-12T23:42:39.864Z,9.40
2023-01-12T23:45:41.751Z,9.90
2023-01-12T23:48:43.865Z,9.80
2023-01-12T23:51:45.724Z,9.80
2023-01-12T23:54:47.747Z,9.80
2023-01-12T23:57:49.557Z,9.70
